sensor_id;sensor_type;location;lat;lon;timestamp;temperature;humidity
50955;DHT22;36966;48.064;-0.792;2023-06-10T00:00:35;25.80;58.10
50955;DHT22;36966;48.064;-0.792;2023-06-10T00:02:55;25.80;58.10
50955;DHT22;36966;48.064;-0.792;2023-06-10T00:05:18;25.70;58.00
50955;DHT22;36966;48.064;-0.792;2023-06-10T00:07:40;25.70;58.20
50955;DHT22;36966;48.064;-0.792;2023-06-10T00:10:00;25.70;58.10
50955;DHT22;36966;48.064;-0.792;2023-06-10T00:12:23;25.70;58.10
50955;DHT22;36966;48.064;-0.792;2023-06-10T00:14:43;25.70;58.10
50955;DHT22;36966;48.064;-0.792;2023-06-10T00:17:02;25.70;58.10
50955;DHT22;36966;48.064;-0.792;2023-06-10T00:19:21;25.70;58.20
50955;DHT22;36966;48.064;-0.792;2023-06-10T00:21:44;25.70;58.20
50955;DHT22;36966;48.064;-0.792;2023-06-10T00:24:04;25.70;58.40
50955;DHT22;36966;48.064;-0.792;2023-06-10T00:26:24;25.70;58.30
50955;DHT22;36966;48.064;-0.792;2023-06-10T00:28:43;25.70;58.20
50955;DHT22;36966;48.064;-0.792;2023-06-10T00:31:03;25.70;58.40
50955;DHT22;36966;48.064;-0.792;2023-06-10T00:33:24;25.70;58.40
50955;DHT22;36966;48.064;-0.792;2023-06-10T00:35:43;25.70;58.50
50955;DHT22;36966;48.064;-0.792;2023-06-10T00:38:02;25.70;58.50
50955;DHT22;36966;48.064;-0.792;2023-06-10T00:40:22;25.70;58.60
50955;DHT22;36966;48.064;-0.792;2023-06-10T00:42:41;25.60;58.60
50955;DHT22;36966;48.064;-0.792;2023-06-10T00:45:00;25.60;58.60
50955;DHT22;36966;48.064;-0.792;2023-06-10T00:47:19;25.60;58.70
50955;DHT22;36966;48.064;-0.792;2023-06-10T00:49:39;25.60;58.70
50955;DHT22;36966;48.064;-0.792;2023-06-10T00:51:58;25.60;58.80
50955;DHT22;36966;48.064;-0.792;2023-06-10T00:54:21;25.60;58.70
50955;DHT22;36966;48.064;-0.792;2023-06-10T00:56:41;25.60;58.70
50955;DHT22;36966;48.064;-0.792;2023-06-10T00:59:01;25.60;58.80
50955;DHT22;36966;48.064;-0.792;2023-06-10T01:01:21;25.60;58.70
50955;DHT22;36966;48.064;-0.792;2023-06-10T01:03:41;25.60;58.70
50955;DHT22;36966;48.064;-0.792;2023-06-10T01:06:06;25.60;58.70
50955;DHT22;36966;48.064;-0.792;2023-06-10T01:08:31;25.60;58.80
50955;DHT22;36966;48.064;-0.792;2023-06-10T01:10:55;25.60;58.80
50955;DHT22;36966;48.064;-0.792;2023-06-10T01:13:17;25.50;58.80
50955;DHT22;36966;48.064;-0.792;2023-06-10T01:15:38;25.50;58.80
50955;DHT22;36966;48.064;-0.792;2023-06-10T01:17:58;25.60;58.80
50955;DHT22;36966;48.064;-0.792;2023-06-10T01:20:18;25.50;58.80
50955;DHT22;36966;48.064;-0.792;2023-06-10T01:22:37;25.50;58.90
50955;DHT22;36966;48.064;-0.792;2023-06-10T01:24:56;25.50;58.90
50955;DHT22;36966;48.064;-0.792;2023-06-10T01:27:17;25.50;58.90
50955;DHT22;36966;48.064;-0.792;2023-06-10T01:29:43;25.50;58.90
50955;DHT22;36966;48.064;-0.792;2023-06-10T01:32:06;25.50;58.90
50955;DHT22;36966;48.064;-0.792;2023-06-10T01:34:26;25.50;59.00
50955;DHT22;36966;48.064;-0.792;2023-06-10T01:36:47;25.50;58.90
50955;DHT22;36966;48.064;-0.792;2023-06-10T01:39:07;25.40;58.90
50955;DHT22;36966;48.064;-0.792;2023-06-10T01:41:27;25.50;59.00
50955;DHT22;36966;48.064;-0.792;2023-06-10T01:43:48;25.50;59.10
50955;DHT22;36966;48.064;-0.792;2023-06-10T01:46:10;25.50;59.10
50955;DHT22;36966;48.064;-0.792;2023-06-10T01:48:30;25.50;59.10
50955;DHT22;36966;48.064;-0.792;2023-06-10T01:50:50;25.40;59.00
50955;DHT22;36966;48.064;-0.792;2023-06-10T01:53:09;25.50;59.10
50955;DHT22;36966;48.064;-0.792;2023-06-10T01:55:28;25.40;59.10
50955;DHT22;36966;48.064;-0.792;2023-06-10T01:57:47;25.40;59.00
50955;DHT22;36966;48.064;-0.792;2023-06-10T02:00:07;25.50;59.00
50955;DHT22;36966;48.064;-0.792;2023-06-10T02:02:27;25.40;59.00
50955;DHT22;36966;48.064;-0.792;2023-06-10T02:04:46;25.40;59.10
50955;DHT22;36966;48.064;-0.792;2023-06-10T02:07:05;25.40;59.10
50955;DHT22;36966;48.064;-0.792;2023-06-10T02:09:25;25.40;59.10
50955;DHT22;36966;48.064;-0.792;2023-06-10T02:11:44;25.40;59.20
50955;DHT22;36966;48.064;-0.792;2023-06-10T02:14:03;25.40;59.20
50955;DHT22;36966;48.064;-0.792;2023-06-10T02:16:23;25.40;59.20
50955;DHT22;36966;48.064;-0.792;2023-06-10T02:18:43;25.40;59.10
50955;DHT22;36966;48.064;-0.792;2023-06-10T02:21:02;25.40;59.20
50955;DHT22;36966;48.064;-0.792;2023-06-10T02:23:21;25.40;59.20
50955;DHT22;36966;48.064;-0.792;2023-06-10T02:25:41;25.40;59.30
50955;DHT22;36966;48.064;-0.792;2023-06-10T02:28:04;25.40;59.30
50955;DHT22;36966;48.064;-0.792;2023-06-10T02:30:23;25.40;59.20
50955;DHT22;36966;48.064;-0.792;2023-06-10T02:32:42;25.40;59.30
50955;DHT22;36966;48.064;-0.792;2023-06-10T02:35:07;25.40;59.30
50955;DHT22;36966;48.064;-0.792;2023-06-10T02:37:26;25.40;59.30
50955;DHT22;36966;48.064;-0.792;2023-06-10T02:39:45;25.40;59.30
50955;DHT22;36966;48.064;-0.792;2023-06-10T02:42:05;25.40;59.30
50955;DHT22;36966;48.064;-0.792;2023-06-10T02:44:24;25.30;59.30
50955;DHT22;36966;48.064;-0.792;2023-06-10T02:46:43;25.40;59.30
50955;DHT22;36966;48.064;-0.792;2023-06-10T02:49:03;25.30;59.10
50955;DHT22;36966;48.064;-0.792;2023-06-10T02:51:25;25.30;59.20
50955;DHT22;36966;48.064;-0.792;2023-06-10T02:53:45;25.40;59.20
50955;DHT22;36966;48.064;-0.792;2023-06-10T02:56:04;25.30;59.20
50955;DHT22;36966;48.064;-0.792;2023-06-10T02:58:23;25.30;59.20
50955;DHT22;36966;48.064;-0.792;2023-06-10T03:00:43;25.30;59.00
50955;DHT22;36966;48.064;-0.792;2023-06-10T03:03:04;25.30;59.00
50955;DHT22;36966;48.064;-0.792;2023-06-10T03:05:23;25.30;59.10
50955;DHT22;36966;48.064;-0.792;2023-06-10T03:07:43;25.30;59.10
50955;DHT22;36966;48.064;-0.792;2023-06-10T03:10:06;25.30;59.00
50955;DHT22;36966;48.064;-0.792;2023-06-10T03:15:23;25.30;58.90
50955;DHT22;36966;48.064;-0.792;2023-06-10T03:17:43;25.30;58.90
50955;DHT22;36966;48.064;-0.792;2023-06-10T03:20:02;25.30;58.90
50955;DHT22;36966;48.064;-0.792;2023-06-10T03:22:24;25.30;58.80
50955;DHT22;36966;48.064;-0.792;2023-06-10T03:24:43;25.30;59.00
50955;DHT22;36966;48.064;-0.792;2023-06-10T03:27:07;25.30;58.80
50955;DHT22;36966;48.064;-0.792;2023-06-10T03:29:26;25.30;58.80
50955;DHT22;36966;48.064;-0.792;2023-06-10T03:31:45;25.30;58.90
50955;DHT22;36966;48.064;-0.792;2023-06-10T03:34:05;25.30;58.80
50955;DHT22;36966;48.064;-0.792;2023-06-10T03:36:24;25.30;58.80
50955;DHT22;36966;48.064;-0.792;2023-06-10T03:38:43;25.30;58.70
50955;DHT22;36966;48.064;-0.792;2023-06-10T03:41:03;25.30;58.70
50955;DHT22;36966;48.064;-0.792;2023-06-10T03:43:22;25.30;58.80
50955;DHT22;36966;48.064;-0.792;2023-06-10T03:45:41;25.30;58.80
50955;DHT22;36966;48.064;-0.792;2023-06-10T03:48:01;25.20;58.80
50955;DHT22;36966;48.064;-0.792;2023-06-10T03:50:20;25.30;58.70
50955;DHT22;36966;48.064;-0.792;2023-06-10T03:52:40;25.20;58.70
50955;DHT22;36966;48.064;-0.792;2023-06-10T03:55:00;25.30;58.70
50955;DHT22;36966;48.064;-0.792;2023-06-10T03:57:19;25.30;58.70
50955;DHT22;36966;48.064;-0.792;2023-06-10T03:59:38;25.20;58.70
50955;DHT22;36966;48.064;-0.792;2023-06-10T04:01:58;25.20;58.70
50955;DHT22;36966;48.064;-0.792;2023-06-10T04:04:17;25.20;58.70
50955;DHT22;36966;48.064;-0.792;2023-06-10T04:06:36;25.30;58.60
50955;DHT22;36966;48.064;-0.792;2023-06-10T04:08:56;25.30;58.50
50955;DHT22;36966;48.064;-0.792;2023-06-10T04:11:18;25.30;58.50
50955;DHT22;36966;48.064;-0.792;2023-06-10T04:13:37;25.20;58.50
50955;DHT22;36966;48.064;-0.792;2023-06-10T04:15:57;25.30;58.30
50955;DHT22;36966;48.064;-0.792;2023-06-10T04:18:16;25.30;58.40
50955;DHT22;36966;48.064;-0.792;2023-06-10T04:20:35;25.30;58.30
50955;DHT22;36966;48.064;-0.792;2023-06-10T04:22:54;25.30;58.20
50955;DHT22;36966;48.064;-0.792;2023-06-10T04:25:14;25.30;58.20
50955;DHT22;36966;48.064;-0.792;2023-06-10T04:27:33;25.30;58.20
50955;DHT22;36966;48.064;-0.792;2023-06-10T04:29:52;25.30;58.00
50955;DHT22;36966;48.064;-0.792;2023-06-10T04:32:11;25.30;58.00
50955;DHT22;36966;48.064;-0.792;2023-06-10T04:34:30;25.30;58.00
50955;DHT22;36966;48.064;-0.792;2023-06-10T04:36:50;25.30;57.90
50955;DHT22;36966;48.064;-0.792;2023-06-10T04:39:10;25.30;57.90
50955;DHT22;36966;48.064;-0.792;2023-06-10T04:41:29;25.30;57.80
50955;DHT22;36966;48.064;-0.792;2023-06-10T04:43:48;25.30;57.80
50955;DHT22;36966;48.064;-0.792;2023-06-10T04:46:08;25.30;57.70
50955;DHT22;36966;48.064;-0.792;2023-06-10T04:48:27;25.40;57.70
50955;DHT22;36966;48.064;-0.792;2023-06-10T04:50:46;25.30;57.50
50955;DHT22;36966;48.064;-0.792;2023-06-10T04:53:06;25.30;57.60
50955;DHT22;36966;48.064;-0.792;2023-06-10T04:55:25;25.30;57.50
50955;DHT22;36966;48.064;-0.792;2023-06-10T04:57:44;25.30;57.40
50955;DHT22;36966;48.064;-0.792;2023-06-10T05:00:04;25.30;57.30
50955;DHT22;36966;48.064;-0.792;2023-06-10T05:02:25;25.40;57.30
50955;DHT22;36966;48.064;-0.792;2023-06-10T05:04:44;25.40;57.30
50955;DHT22;36966;48.064;-0.792;2023-06-10T05:07:04;25.30;57.20
50955;DHT22;36966;48.064;-0.792;2023-06-10T05:09:23;25.40;57.30
50955;DHT22;36966;48.064;-0.792;2023-06-10T05:11:43;25.40;57.10
50955;DHT22;36966;48.064;-0.792;2023-06-10T05:14:02;25.40;57.20
50955;DHT22;36966;48.064;-0.792;2023-06-10T05:16:22;25.40;57.20
50955;DHT22;36966;48.064;-0.792;2023-06-10T05:18:41;25.30;57.20
50955;DHT22;36966;48.064;-0.792;2023-06-10T05:21:01;25.40;57.10
50955;DHT22;36966;48.064;-0.792;2023-06-10T05:23:21;25.40;57.10
50955;DHT22;36966;48.064;-0.792;2023-06-10T05:25:40;25.40;57.10
50955;DHT22;36966;48.064;-0.792;2023-06-10T05:28:00;25.40;57.10
50955;DHT22;36966;48.064;-0.792;2023-06-10T05:30:20;25.40;57.00
50955;DHT22;36966;48.064;-0.792;2023-06-10T05:32:39;25.50;57.10
50955;DHT22;36966;48.064;-0.792;2023-06-10T05:34:59;25.50;57.00
50955;DHT22;36966;48.064;-0.792;2023-06-10T05:37:19;25.40;57.00
50955;DHT22;36966;48.064;-0.792;2023-06-10T05:39:39;25.50;57.10
50955;DHT22;36966;48.064;-0.792;2023-06-10T05:42:01;25.40;57.10
50955;DHT22;36966;48.064;-0.792;2023-06-10T05:44:29;25.40;57.10
50955;DHT22;36966;48.064;-0.792;2023-06-10T05:46:55;25.40;57.10
50955;DHT22;36966;48.064;-0.792;2023-06-10T05:49:15;25.40;57.40
50955;DHT22;36966;48.064;-0.792;2023-06-10T05:51:34;25.40;57.30
50955;DHT22;36966;48.064;-0.792;2023-06-10T05:53:53;25.40;57.40
50955;DHT22;36966;48.064;-0.792;2023-06-10T05:56:13;25.40;57.60
50955;DHT22;36966;48.064;-0.792;2023-06-10T05:58:34;25.40;57.60
50955;DHT22;36966;48.064;-0.792;2023-06-10T06:00:53;25.40;57.80
50955;DHT22;36966;48.064;-0.792;2023-06-10T06:03:13;25.50;58.20
50955;DHT22;36966;48.064;-0.792;2023-06-10T06:05:32;25.50;57.90
50955;DHT22;36966;48.064;-0.792;2023-06-10T06:07:53;25.50;57.90
50955;DHT22;36966;48.064;-0.792;2023-06-10T06:10:13;25.60;57.70
50955;DHT22;36966;48.064;-0.792;2023-06-10T06:12:33;25.60;57.80
50955;DHT22;36966;48.064;-0.792;2023-06-10T06:14:52;25.60;57.90
50955;DHT22;36966;48.064;-0.792;2023-06-10T06:17:11;25.60;58.00
50955;DHT22;36966;48.064;-0.792;2023-06-10T06:19:30;25.60;58.20
50955;DHT22;36966;48.064;-0.792;2023-06-10T06:21:49;25.60;58.30
50955;DHT22;36966;48.064;-0.792;2023-06-10T06:24:08;25.60;58.30
50955;DHT22;36966;48.064;-0.792;2023-06-10T06:26:28;25.60;58.70
50955;DHT22;36966;48.064;-0.792;2023-06-10T06:28:47;25.60;58.80
50955;DHT22;36966;48.064;-0.792;2023-06-10T06:31:07;25.50;58.80
50955;DHT22;36966;48.064;-0.792;2023-06-10T06:33:26;25.60;58.90
50955;DHT22;36966;48.064;-0.792;2023-06-10T06:35:46;25.50;58.90
50955;DHT22;36966;48.064;-0.792;2023-06-10T06:38:05;25.50;59.10
50955;DHT22;36966;48.064;-0.792;2023-06-10T06:40:24;25.50;59.00
50955;DHT22;36966;48.064;-0.792;2023-06-10T06:42:44;25.50;58.70
50955;DHT22;36966;48.064;-0.792;2023-06-10T06:45:03;25.60;58.60
50955;DHT22;36966;48.064;-0.792;2023-06-10T06:47:23;25.60;58.40
50955;DHT22;36966;48.064;-0.792;2023-06-10T06:49:42;25.50;58.30
50955;DHT22;36966;48.064;-0.792;2023-06-10T06:52:02;25.60;58.30
50955;DHT22;36966;48.064;-0.792;2023-06-10T06:54:21;25.50;58.10
50955;DHT22;36966;48.064;-0.792;2023-06-10T06:56:40;25.50;58.20
50955;DHT22;36966;48.064;-0.792;2023-06-10T06:59:00;25.50;58.10
50955;DHT22;36966;48.064;-0.792;2023-06-10T07:01:19;25.60;58.10
50955;DHT22;36966;48.064;-0.792;2023-06-10T07:03:39;25.60;58.00
50955;DHT22;36966;48.064;-0.792;2023-06-10T07:05:58;25.60;58.00
50955;DHT22;36966;48.064;-0.792;2023-06-10T07:08:18;25.50;57.90
50955;DHT22;36966;48.064;-0.792;2023-06-10T07:10:37;25.50;58.00
50955;DHT22;36966;48.064;-0.792;2023-06-10T07:12:56;25.50;57.90
50955;DHT22;36966;48.064;-0.792;2023-06-10T07:15:16;25.50;57.90
50955;DHT22;36966;48.064;-0.792;2023-06-10T07:17:35;25.60;57.80
50955;DHT22;36966;48.064;-0.792;2023-06-10T07:19:54;25.50;57.80
50955;DHT22;36966;48.064;-0.792;2023-06-10T07:22:16;25.60;57.80
50955;DHT22;36966;48.064;-0.792;2023-06-10T07:24:35;25.50;57.70
50955;DHT22;36966;48.064;-0.792;2023-06-10T07:26:54;25.50;57.80
50955;DHT22;36966;48.064;-0.792;2023-06-10T07:29:14;25.50;57.80
50955;DHT22;36966;48.064;-0.792;2023-06-10T07:31:33;25.50;57.80
50955;DHT22;36966;48.064;-0.792;2023-06-10T07:33:52;25.50;57.70
50955;DHT22;36966;48.064;-0.792;2023-06-10T07:36:12;25.50;57.70
50955;DHT22;36966;48.064;-0.792;2023-06-10T07:38:31;25.50;57.60
50955;DHT22;36966;48.064;-0.792;2023-06-10T07:40:51;25.60;57.60
50955;DHT22;36966;48.064;-0.792;2023-06-10T07:43:10;25.50;57.60
50955;DHT22;36966;48.064;-0.792;2023-06-10T07:45:29;25.50;57.70
50955;DHT22;36966;48.064;-0.792;2023-06-10T07:47:51;25.50;57.60
50955;DHT22;36966;48.064;-0.792;2023-06-10T07:50:11;25.60;57.60
50955;DHT22;36966;48.064;-0.792;2023-06-10T07:52:30;25.60;57.60
50955;DHT22;36966;48.064;-0.792;2023-06-10T07:54:50;25.60;57.50
50955;DHT22;36966;48.064;-0.792;2023-06-10T07:57:09;25.60;57.50
50955;DHT22;36966;48.064;-0.792;2023-06-10T07:59:28;25.60;57.50
50955;DHT22;36966;48.064;-0.792;2023-06-10T08:01:48;25.60;57.50
50955;DHT22;36966;48.064;-0.792;2023-06-10T08:04:07;25.60;57.40
50955;DHT22;36966;48.064;-0.792;2023-06-10T08:06:27;25.60;57.40
50955;DHT22;36966;48.064;-0.792;2023-06-10T08:08:47;25.60;57.40
50955;DHT22;36966;48.064;-0.792;2023-06-10T08:11:06;25.60;57.40
50955;DHT22;36966;48.064;-0.792;2023-06-10T08:13:25;25.60;57.40
50955;DHT22;36966;48.064;-0.792;2023-06-10T08:15:47;25.60;57.40
50955;DHT22;36966;48.064;-0.792;2023-06-10T08:18:09;25.60;57.40
50955;DHT22;36966;48.064;-0.792;2023-06-10T08:20:29;25.60;57.40
50955;DHT22;36966;48.064;-0.792;2023-06-10T08:22:48;25.60;57.40
50955;DHT22;36966;48.064;-0.792;2023-06-10T08:25:08;25.60;57.40
50955;DHT22;36966;48.064;-0.792;2023-06-10T08:27:30;25.60;57.40
50955;DHT22;36966;48.064;-0.792;2023-06-10T08:29:50;25.60;57.40
50955;DHT22;36966;48.064;-0.792;2023-06-10T08:32:09;25.60;57.40
50955;DHT22;36966;48.064;-0.792;2023-06-10T08:34:29;25.60;57.40
50955;DHT22;36966;48.064;-0.792;2023-06-10T08:36:48;25.60;57.40
50955;DHT22;36966;48.064;-0.792;2023-06-10T08:39:14;25.60;57.50
50955;DHT22;36966;48.064;-0.792;2023-06-10T08:41:35;25.60;57.50
50955;DHT22;36966;48.064;-0.792;2023-06-10T08:43:59;25.60;57.40
50955;DHT22;36966;48.064;-0.792;2023-06-10T08:46:20;25.60;57.40
50955;DHT22;36966;48.064;-0.792;2023-06-10T08:48:41;25.60;57.40
50955;DHT22;36966;48.064;-0.792;2023-06-10T08:51:01;25.60;57.40
50955;DHT22;36966;48.064;-0.792;2023-06-10T08:53:22;25.60;57.40
50955;DHT22;36966;48.064;-0.792;2023-06-10T08:55:42;25.60;57.40
50955;DHT22;36966;48.064;-0.792;2023-06-10T08:58:03;25.60;57.40
50955;DHT22;36966;48.064;-0.792;2023-06-10T09:00:23;25.60;57.40
50955;DHT22;36966;48.064;-0.792;2023-06-10T09:02:42;25.60;57.40
50955;DHT22;36966;48.064;-0.792;2023-06-10T09:05:02;25.60;57.40
50955;DHT22;36966;48.064;-0.792;2023-06-10T09:07:22;25.50;57.50
50955;DHT22;36966;48.064;-0.792;2023-06-10T09:09:41;25.60;57.50
50955;DHT22;36966;48.064;-0.792;2023-06-10T09:12:01;25.60;57.50
50955;DHT22;36966;48.064;-0.792;2023-06-10T09:14:20;25.60;57.50
50955;DHT22;36966;48.064;-0.792;2023-06-10T09:16:40;25.60;57.50
50955;DHT22;36966;48.064;-0.792;2023-06-10T09:18:59;25.60;57.50
50955;DHT22;36966;48.064;-0.792;2023-06-10T09:21:19;25.70;57.60
50955;DHT22;36966;48.064;-0.792;2023-06-10T09:23:38;25.70;57.50
50955;DHT22;36966;48.064;-0.792;2023-06-10T09:25:57;25.60;57.60
50955;DHT22;36966;48.064;-0.792;2023-06-10T09:28:17;25.60;57.60
50955;DHT22;36966;48.064;-0.792;2023-06-10T09:30:36;25.70;57.60
50955;DHT22;36966;48.064;-0.792;2023-06-10T09:32:56;25.60;57.60
50955;DHT22;36966;48.064;-0.792;2023-06-10T09:35:15;25.60;57.60
50955;DHT22;36966;48.064;-0.792;2023-06-10T09:37:37;25.70;57.60
50955;DHT22;36966;48.064;-0.792;2023-06-10T09:40:04;25.70;57.60
50955;DHT22;36966;48.064;-0.792;2023-06-10T09:42:24;25.70;57.60
50955;DHT22;36966;48.064;-0.792;2023-06-10T09:44:50;25.70;57.70
50955;DHT22;36966;48.064;-0.792;2023-06-10T09:47:12;25.60;57.80
50955;DHT22;36966;48.064;-0.792;2023-06-10T09:49:38;25.60;58.80
50955;DHT22;36966;48.064;-0.792;2023-06-10T09:51:58;25.60;58.80
50955;DHT22;36966;48.064;-0.792;2023-06-10T09:54:18;25.60;58.90
50955;DHT22;36966;48.064;-0.792;2023-06-10T09:56:37;25.70;59.10
50955;DHT22;36966;48.064;-0.792;2023-06-10T09:58:59;25.60;59.30
50955;DHT22;36966;48.064;-0.792;2023-06-10T10:01:18;25.70;59.50
50955;DHT22;36966;48.064;-0.792;2023-06-10T10:03:49;25.70;59.60
50955;DHT22;36966;48.064;-0.792;2023-06-10T10:06:08;25.60;59.90
50955;DHT22;36966;48.064;-0.792;2023-06-10T10:08:28;25.60;60.20
50955;DHT22;36966;48.064;-0.792;2023-06-10T10:10:47;25.70;60.40
50955;DHT22;36966;48.064;-0.792;2023-06-10T10:13:06;25.70;60.60
50955;DHT22;36966;48.064;-0.792;2023-06-10T10:15:28;25.60;60.90
50955;DHT22;36966;48.064;-0.792;2023-06-10T10:17:51;25.70;60.90
50955;DHT22;36966;48.064;-0.792;2023-06-10T10:20:12;25.60;61.60
50955;DHT22;36966;48.064;-0.792;2023-06-10T10:22:37;25.70;61.50
50955;DHT22;36966;48.064;-0.792;2023-06-10T10:24:57;25.60;61.10
50955;DHT22;36966;48.064;-0.792;2023-06-10T10:27:18;25.70;61.20
50955;DHT22;36966;48.064;-0.792;2023-06-10T10:29:40;25.70;61.10
50955;DHT22;36966;48.064;-0.792;2023-06-10T10:31:59;25.70;61.20
50955;DHT22;36966;48.064;-0.792;2023-06-10T10:34:21;25.70;61.30
50955;DHT22;36966;48.064;-0.792;2023-06-10T10:36:41;25.70;61.10
50955;DHT22;36966;48.064;-0.792;2023-06-10T10:39:00;25.70;61.00
50955;DHT22;36966;48.064;-0.792;2023-06-10T10:41:22;25.70;61.00
50955;DHT22;36966;48.064;-0.792;2023-06-10T10:43:43;25.70;61.10
50955;DHT22;36966;48.064;-0.792;2023-06-10T10:46:08;25.70;61.00
50955;DHT22;36966;48.064;-0.792;2023-06-10T10:48:37;25.70;60.90
50955;DHT22;36966;48.064;-0.792;2023-06-10T10:50:57;25.70;61.00
50955;DHT22;36966;48.064;-0.792;2023-06-10T10:53:19;25.70;60.90
50955;DHT22;36966;48.064;-0.792;2023-06-10T10:55:38;25.80;60.80
50955;DHT22;36966;48.064;-0.792;2023-06-10T10:57:59;25.80;60.90
50955;DHT22;36966;48.064;-0.792;2023-06-10T11:00:31;25.80;60.80
50955;DHT22;36966;48.064;-0.792;2023-06-10T11:02:51;25.80;61.10
50955;DHT22;36966;48.064;-0.792;2023-06-10T11:05:15;25.80;61.10
50955;DHT22;36966;48.064;-0.792;2023-06-10T11:07:34;25.80;61.50
50955;DHT22;36966;48.064;-0.792;2023-06-10T11:09:59;25.90;61.40
50955;DHT22;36966;48.064;-0.792;2023-06-10T11:12:25;25.90;62.10
50955;DHT22;36966;48.064;-0.792;2023-06-10T11:14:54;25.90;62.30
50955;DHT22;36966;48.064;-0.792;2023-06-10T11:17:18;26.00;61.90
50955;DHT22;36966;48.064;-0.792;2023-06-10T11:19:37;26.00;61.60
50955;DHT22;36966;48.064;-0.792;2023-06-10T11:21:58;26.00;61.30
50955;DHT22;36966;48.064;-0.792;2023-06-10T11:24:20;26.10;61.20
50955;DHT22;36966;48.064;-0.792;2023-06-10T11:26:43;26.10;60.90
50955;DHT22;36966;48.064;-0.792;2023-06-10T11:29:04;26.20;60.60
50955;DHT22;36966;48.064;-0.792;2023-06-10T11:31:24;26.20;60.40
50955;DHT22;36966;48.064;-0.792;2023-06-10T11:33:44;26.20;60.20
50955;DHT22;36966;48.064;-0.792;2023-06-10T11:36:06;26.20;60.00
50955;DHT22;36966;48.064;-0.792;2023-06-10T11:38:26;26.30;59.80
50955;DHT22;36966;48.064;-0.792;2023-06-10T11:40:48;26.20;59.70
50955;DHT22;36966;48.064;-0.792;2023-06-10T11:43:09;26.20;59.50
50955;DHT22;36966;48.064;-0.792;2023-06-10T11:45:28;26.20;59.50
50955;DHT22;36966;48.064;-0.792;2023-06-10T11:47:57;26.30;59.40
50955;DHT22;36966;48.064;-0.792;2023-06-10T11:50:26;26.30;59.20
50955;DHT22;36966;48.064;-0.792;2023-06-10T11:52:46;26.30;59.20
50955;DHT22;36966;48.064;-0.792;2023-06-10T11:55:05;26.30;59.10
50955;DHT22;36966;48.064;-0.792;2023-06-10T11:57:25;26.30;59.00
50955;DHT22;36966;48.064;-0.792;2023-06-10T11:59:44;26.30;58.90
50955;DHT22;36966;48.064;-0.792;2023-06-10T12:02:03;26.30;58.80
50955;DHT22;36966;48.064;-0.792;2023-06-10T12:04:23;26.40;58.70
50955;DHT22;36966;48.064;-0.792;2023-06-10T12:06:44;26.30;58.60
50955;DHT22;36966;48.064;-0.792;2023-06-10T12:09:06;26.30;58.50
50955;DHT22;36966;48.064;-0.792;2023-06-10T12:11:25;26.30;58.40
50955;DHT22;36966;48.064;-0.792;2023-06-10T12:13:46;26.40;58.20
50955;DHT22;36966;48.064;-0.792;2023-06-10T12:16:08;26.30;58.10
50955;DHT22;36966;48.064;-0.792;2023-06-10T12:18:28;26.40;58.10
50955;DHT22;36966;48.064;-0.792;2023-06-10T12:20:47;26.40;58.00
50955;DHT22;36966;48.064;-0.792;2023-06-10T12:23:10;26.40;57.90
50955;DHT22;36966;48.064;-0.792;2023-06-10T12:25:30;26.40;57.80
50955;DHT22;36966;48.064;-0.792;2023-06-10T12:27:51;26.40;57.80
50955;DHT22;36966;48.064;-0.792;2023-06-10T12:30:18;26.40;57.70
50955;DHT22;36966;48.064;-0.792;2023-06-10T12:32:41;26.40;57.60
50955;DHT22;36966;48.064;-0.792;2023-06-10T12:35:04;26.40;57.50
50955;DHT22;36966;48.064;-0.792;2023-06-10T12:37:24;26.40;57.50
50955;DHT22;36966;48.064;-0.792;2023-06-10T12:39:43;26.40;57.40
50955;DHT22;36966;48.064;-0.792;2023-06-10T12:42:12;26.40;57.30
50955;DHT22;36966;48.064;-0.792;2023-06-10T12:44:31;26.30;57.30
50955;DHT22;36966;48.064;-0.792;2023-06-10T12:46:54;26.40;57.20
50955;DHT22;36966;48.064;-0.792;2023-06-10T12:49:20;26.40;57.10
50955;DHT22;36966;48.064;-0.792;2023-06-10T12:51:39;26.40;57.10
50955;DHT22;36966;48.064;-0.792;2023-06-10T12:53:59;26.40;57.00
50955;DHT22;36966;48.064;-0.792;2023-06-10T12:56:18;26.40;56.90
50955;DHT22;36966;48.064;-0.792;2023-06-10T12:58:37;26.40;56.90
50955;DHT22;36966;48.064;-0.792;2023-06-10T13:00:57;26.40;56.80
50955;DHT22;36966;48.064;-0.792;2023-06-10T13:03:18;26.30;56.80
50955;DHT22;36966;48.064;-0.792;2023-06-10T13:05:37;26.30;56.70
50955;DHT22;36966;48.064;-0.792;2023-06-10T13:07:58;26.30;56.70
50955;DHT22;36966;48.064;-0.792;2023-06-10T13:10:17;26.30;56.60
50955;DHT22;36966;48.064;-0.792;2023-06-10T13:12:37;26.30;56.70
50955;DHT22;36966;48.064;-0.792;2023-06-10T13:14:57;26.30;56.70
50955;DHT22;36966;48.064;-0.792;2023-06-10T13:17:17;26.30;56.60
50955;DHT22;36966;48.064;-0.792;2023-06-10T13:19:36;26.30;56.70
50955;DHT22;36966;48.064;-0.792;2023-06-10T13:21:55;26.30;56.60
50955;DHT22;36966;48.064;-0.792;2023-06-10T13:24:14;26.30;56.60
50955;DHT22;36966;48.064;-0.792;2023-06-10T13:26:34;26.30;56.60
50955;DHT22;36966;48.064;-0.792;2023-06-10T13:28:53;26.30;56.60
50955;DHT22;36966;48.064;-0.792;2023-06-10T13:31:12;26.20;56.60
50955;DHT22;36966;48.064;-0.792;2023-06-10T13:33:31;26.20;56.60
50955;DHT22;36966;48.064;-0.792;2023-06-10T13:35:51;26.20;56.50
50955;DHT22;36966;48.064;-0.792;2023-06-10T13:38:10;26.20;56.60
50955;DHT22;36966;48.064;-0.792;2023-06-10T13:40:29;26.20;56.50
50955;DHT22;36966;48.064;-0.792;2023-06-10T13:42:49;26.20;56.40
50955;DHT22;36966;48.064;-0.792;2023-06-10T13:45:09;26.20;56.40
50955;DHT22;36966;48.064;-0.792;2023-06-10T13:47:29;26.20;56.40
50955;DHT22;36966;48.064;-0.792;2023-06-10T13:49:48;26.20;56.40
50955;DHT22;36966;48.064;-0.792;2023-06-10T13:52:08;26.20;56.40
50955;DHT22;36966;48.064;-0.792;2023-06-10T13:54:27;26.20;56.40
50955;DHT22;36966;48.064;-0.792;2023-06-10T13:56:46;26.20;56.30
50955;DHT22;36966;48.064;-0.792;2023-06-10T13:59:05;26.20;56.50
50955;DHT22;36966;48.064;-0.792;2023-06-10T14:01:25;26.20;56.50
50955;DHT22;36966;48.064;-0.792;2023-06-10T14:03:44;26.20;56.40
50955;DHT22;36966;48.064;-0.792;2023-06-10T14:06:04;26.20;56.40
50955;DHT22;36966;48.064;-0.792;2023-06-10T14:08:23;26.20;56.40
50955;DHT22;36966;48.064;-0.792;2023-06-10T14:10:42;26.20;56.40
50955;DHT22;36966;48.064;-0.792;2023-06-10T14:13:01;26.20;56.40
50955;DHT22;36966;48.064;-0.792;2023-06-10T14:15:21;26.30;56.30
50955;DHT22;36966;48.064;-0.792;2023-06-10T14:17:40;26.20;56.30
50955;DHT22;36966;48.064;-0.792;2023-06-10T14:19:59;26.30;56.30
50955;DHT22;36966;48.064;-0.792;2023-06-10T14:22:18;26.20;56.30
50955;DHT22;36966;48.064;-0.792;2023-06-10T14:24:37;26.20;56.40
50955;DHT22;36966;48.064;-0.792;2023-06-10T14:26:57;26.20;56.40
50955;DHT22;36966;48.064;-0.792;2023-06-10T14:29:17;26.20;56.30
50955;DHT22;36966;48.064;-0.792;2023-06-10T14:31:38;26.30;56.30
50955;DHT22;36966;48.064;-0.792;2023-06-10T14:33:57;26.30;56.20